sensor_id;sensor_type;location;lat;lon;timestamp;pressure;altitude;pressure_sealevel;temperature;humidity
81518;BME280;70947;50.806;8.774;2023-06-22T00:00:41;99845.88;;;20.07;79.79
81518;BME280;70947;50.806;8.774;2023-06-22T00:03:11;99841.63;;;20.07;79.87
81518;BME280;70947;50.806;8.774;2023-06-22T00:05:41;99841.45;;;20.07;79.79
81518;BME280;70947;50.806;8.774;2023-06-22T00:08:11;99833.11;;;20.09;79.80
81518;BME280;70947;50.806;8.774;2023-06-22T00:10:41;99829.61;;;20.10;79.74
81518;BME280;70947;50.806;8.774;2023-06-22T00:13:12;99812.36;;;20.12;79.65
81518;BME280;70947;50.806;8.774;2023-06-22T00:15:43;99797.98;;;20.13;79.56
81518;BME280;70947;50.806;8.774;2023-06-22T00:18:13;99786.16;;;20.14;79.43
81518;BME280;70947;50.806;8.774;2023-06-22T00:20:43;99774.84;;;20.15;79.30
81518;BME280;70947;50.806;8.774;2023-06-22T00:23:13;99767.10;;;20.15;79.09
81518;BME280;70947;50.806;8.774;2023-06-22T00:25:42;99751.89;;;20.16;79.12
81518;BME280;70947;50.806;8.774;2023-06-22T00:28:12;99734.70;;;20.16;79.06
81518;BME280;70947;50.806;8.774;2023-06-22T00:30:42;99725.35;;;20.17;78.95
81518;BME280;70947;50.806;8.774;2023-06-22T00:33:12;99712.27;;;20.18;79.05
81518;BME280;70947;50.806;8.774;2023-06-22T00:35:42;99695.50;;;20.17;79.06
81518;BME280;70947;50.806;8.774;2023-06-22T00:38:12;99690.95;;;20.16;79.00
81518;BME280;70947;50.806;8.774;2023-06-22T00:40:42;99699.78;;;20.14;78.92
81518;BME280;70947;50.806;8.774;2023-06-22T00:43:11;99708.27;;;20.12;78.89
81518;BME280;70947;50.806;8.774;2023-06-22T00:45:41;99713.13;;;20.12;78.90
81518;BME280;70947;50.806;8.774;2023-06-22T00:48:11;99718.02;;;20.11;78.76
81518;BME280;70947;50.806;8.774;2023-06-22T00:50:42;99732.68;;;20.11;78.76
81518;BME280;70947;50.806;8.774;2023-06-22T00:53:12;99740.52;;;20.11;78.79
81518;BME280;70947;50.806;8.774;2023-06-22T00:55:43;99750.26;;;20.13;78.63
81518;BME280;70947;50.806;8.774;2023-06-22T00:58:14;99751.88;;;20.13;78.66
81518;BME280;70947;50.806;8.774;2023-06-22T01:00:44;99759.94;;;20.12;78.64
81518;BME280;70947;50.806;8.774;2023-06-22T01:03:13;99763.96;;;20.11;78.65
81518;BME280;70947;50.806;8.774;2023-06-22T01:05:43;99769.20;;;20.10;78.55
81518;BME280;70947;50.806;8.774;2023-06-22T01:08:27;99772.20;;;20.11;78.66
81518;BME280;70947;50.806;8.774;2023-06-22T01:11:04;99777.83;;;20.12;78.74
81518;BME280;70947;50.806;8.774;2023-06-22T01:13:39;99779.30;;;20.15;78.58
81518;BME280;70947;50.806;8.774;2023-06-22T01:16:15;99778.77;;;20.15;78.45
81518;BME280;70947;50.806;8.774;2023-06-22T01:18:46;99784.02;;;20.13;78.57
81518;BME280;70947;50.806;8.774;2023-06-22T01:21:19;99788.13;;;20.13;78.48
81518;BME280;70947;50.806;8.774;2023-06-22T01:23:58;99785.92;;;20.14;78.44
81518;BME280;70947;50.806;8.774;2023-06-22T01:26:38;99794.86;;;20.15;78.52
81518;BME280;70947;50.806;8.774;2023-06-22T01:29:10;99798.41;;;20.15;78.42
81518;BME280;70947;50.806;8.774;2023-06-22T01:31:40;99801.59;;;20.16;78.29
81518;BME280;70947;50.806;8.774;2023-06-22T01:34:12;99808.20;;;20.21;78.15
81518;BME280;70947;50.806;8.774;2023-06-22T01:36:40;99810.41;;;20.23;78.05
81518;BME280;70947;50.806;8.774;2023-06-22T01:39:11;99810.36;;;20.21;78.10
81518;BME280;70947;50.806;8.774;2023-06-22T01:41:42;99810.35;;;20.18;78.07
81518;BME280;70947;50.806;8.774;2023-06-22T01:44:12;99806.58;;;20.16;78.14
81518;BME280;70947;50.806;8.774;2023-06-22T01:46:42;99813.44;;;20.15;78.10
81518;BME280;70947;50.806;8.774;2023-06-22T01:49:14;99818.54;;;20.13;78.22
81518;BME280;70947;50.806;8.774;2023-06-22T01:51:44;99820.06;;;20.11;78.12
81518;BME280;70947;50.806;8.774;2023-06-22T01:54:14;99821.73;;;20.10;78.09
81518;BME280;70947;50.806;8.774;2023-06-22T01:56:44;99830.32;;;20.10;78.14
81518;BME280;70947;50.806;8.774;2023-06-22T01:59:17;99835.20;;;20.09;78.09
81518;BME280;70947;50.806;8.774;2023-06-22T02:01:51;99832.81;;;20.08;78.08
81518;BME280;70947;50.806;8.774;2023-06-22T02:04:28;99833.92;;;20.07;78.21
81518;BME280;70947;50.806;8.774;2023-06-22T02:07:00;99830.86;;;20.07;78.21
81518;BME280;70947;50.806;8.774;2023-06-22T02:09:32;99828.73;;;20.08;78.16
81518;BME280;70947;50.806;8.774;2023-06-22T02:12:06;99827.58;;;20.08;78.08
81518;BME280;70947;50.806;8.774;2023-06-22T02:14:38;99821.73;;;20.08;78.10
81518;BME280;70947;50.806;8.774;2023-06-22T02:17:10;99822.30;;;20.07;78.07
81518;BME280;70947;50.806;8.774;2023-06-22T02:19:39;99819.14;;;20.06;78.21
81518;BME280;70947;50.806;8.774;2023-06-22T02:22:10;99811.50;;;20.05;78.35
81518;BME280;70947;50.806;8.774;2023-06-22T02:24:40;99802.17;;;20.06;78.37
81518;BME280;70947;50.806;8.774;2023-06-22T02:27:10;99797.10;;;20.07;78.37
81518;BME280;70947;50.806;8.774;2023-06-22T02:29:40;99796.17;;;20.07;78.33
81518;BME280;70947;50.806;8.774;2023-06-22T02:32:10;99798.20;;;20.07;78.36
81518;BME280;70947;50.806;8.774;2023-06-22T02:34:40;99801.14;;;20.05;78.50
81518;BME280;70947;50.806;8.774;2023-06-22T02:37:09;99796.70;;;20.05;78.36
81518;BME280;70947;50.806;8.774;2023-06-22T02:39:39;99793.48;;;20.05;78.43
81518;BME280;70947;50.806;8.774;2023-06-22T02:42:09;99791.59;;;20.04;78.37
81518;BME280;70947;50.806;8.774;2023-06-22T02:44:39;99788.27;;;20.03;78.30
81518;BME280;70947;50.806;8.774;2023-06-22T02:47:08;99785.48;;;20.01;78.33
81518;BME280;70947;50.806;8.774;2023-06-22T02:49:38;99788.70;;;19.98;78.44
81518;BME280;70947;50.806;8.774;2023-06-22T02:52:08;99782.00;;;20.00;78.50
81518;BME280;70947;50.806;8.774;2023-06-22T02:54:37;99778.45;;;20.08;78.26
81518;BME280;70947;50.806;8.774;2023-06-22T02:57:07;99770.30;;;20.13;78.06
81518;BME280;70947;50.806;8.774;2023-06-22T02:59:38;99766.58;;;20.12;78.06
81518;BME280;70947;50.806;8.774;2023-06-22T03:02:07;99765.02;;;20.14;78.08
81518;BME280;70947;50.806;8.774;2023-06-22T03:04:37;99754.69;;;20.17;78.04
81518;BME280;70947;50.806;8.774;2023-06-22T03:07:07;99753.64;;;20.19;78.08
81518;BME280;70947;50.806;8.774;2023-06-22T03:09:37;99743.13;;;20.18;78.10
81518;BME280;70947;50.806;8.774;2023-06-22T03:12:08;99741.16;;;20.16;78.11
81518;BME280;70947;50.806;8.774;2023-06-22T03:14:37;99733.55;;;20.14;78.15
81518;BME280;70947;50.806;8.774;2023-06-22T03:17:07;99732.39;;;20.13;78.17
81518;BME280;70947;50.806;8.774;2023-06-22T03:19:36;99730.39;;;20.10;78.20
81518;BME280;70947;50.806;8.774;2023-06-22T03:22:07;99734.41;;;20.09;78.22
81518;BME280;70947;50.806;8.774;2023-06-22T03:24:36;99737.02;;;20.08;78.33
81518;BME280;70947;50.806;8.774;2023-06-22T03:27:07;99735.92;;;20.04;78.36
81518;BME280;70947;50.806;8.774;2023-06-22T03:29:36;99738.41;;;20.02;78.37
81518;BME280;70947;50.806;8.774;2023-06-22T03:33:27;99739.85;;;20.02;78.42
81518;BME280;70947;50.806;8.774;2023-06-22T03:35:59;99731.48;;;19.99;78.52
81518;BME280;70947;50.806;8.774;2023-06-22T03:38:30;99714.09;;;19.96;78.44
81518;BME280;70947;50.806;8.774;2023-06-22T03:41:01;99715.13;;;19.94;78.31
81518;BME280;70947;50.806;8.774;2023-06-22T03:43:32;99719.23;;;19.92;78.43
81518;BME280;70947;50.806;8.774;2023-06-22T03:46:03;99725.63;;;19.90;78.41
81518;BME280;70947;50.806;8.774;2023-06-22T03:48:34;99726.98;;;19.87;78.47
81518;BME280;70947;50.806;8.774;2023-06-22T03:51:05;99725.31;;;19.86;78.63
81518;BME280;70947;50.806;8.774;2023-06-22T03:53:36;99731.51;;;19.83;78.69
81518;BME280;70947;50.806;8.774;2023-06-22T03:56:07;99735.33;;;19.82;78.76
81518;BME280;70947;50.806;8.774;2023-06-22T03:58:39;99734.86;;;19.81;78.69
81518;BME280;70947;50.806;8.774;2023-06-22T04:01:12;99733.02;;;19.80;78.75
81518;BME280;70947;50.806;8.774;2023-06-22T04:03:43;99735.01;;;19.79;78.76
81518;BME280;70947;50.806;8.774;2023-06-22T04:06:14;99745.54;;;19.79;78.75
81518;BME280;70947;50.806;8.774;2023-06-22T04:08:44;99739.84;;;19.79;78.74
81518;BME280;70947;50.806;8.774;2023-06-22T04:11:18;99734.97;;;19.80;78.67
81518;BME280;70947;50.806;8.774;2023-06-22T04:13:49;99740.30;;;19.80;78.57
81518;BME280;70947;50.806;8.774;2023-06-22T04:16:21;99739.73;;;19.81;78.71
81518;BME280;70947;50.806;8.774;2023-06-22T04:18:52;99737.56;;;19.81;78.68
81518;BME280;70947;50.806;8.774;2023-06-22T04:21:23;99740.76;;;19.82;78.73
81518;BME280;70947;50.806;8.774;2023-06-22T04:23:54;99747.63;;;19.83;78.62
81518;BME280;70947;50.806;8.774;2023-06-22T04:26:23;99747.53;;;19.85;78.55
81518;BME280;70947;50.806;8.774;2023-06-22T04:28:54;99748.77;;;19.85;78.53
81518;BME280;70947;50.806;8.774;2023-06-22T04:31:25;99751.67;;;19.84;78.48
81518;BME280;70947;50.806;8.774;2023-06-22T04:34:02;99755.26;;;19.84;78.31
81518;BME280;70947;50.806;8.774;2023-06-22T04:36:37;99750.23;;;19.84;78.31
81518;BME280;70947;50.806;8.774;2023-06-22T04:39:09;99743.63;;;19.84;78.33
81518;BME280;70947;50.806;8.774;2023-06-22T04:41:41;99741.48;;;19.84;78.29
81518;BME280;70947;50.806;8.774;2023-06-22T04:44:15;99746.98;;;19.85;78.17
81518;BME280;70947;50.806;8.774;2023-06-22T04:46:55;99744.48;;;19.85;78.22
81518;BME280;70947;50.806;8.774;2023-06-22T04:49:30;99744.27;;;19.86;78.19
81518;BME280;70947;50.806;8.774;2023-06-22T04:52:06;99741.61;;;19.85;78.16
81518;BME280;70947;50.806;8.774;2023-06-22T04:54:40;99739.94;;;19.86;78.13
81518;BME280;70947;50.806;8.774;2023-06-22T04:57:18;99738.78;;;19.87;78.11
81518;BME280;70947;50.806;8.774;2023-06-22T04:59:48;99733.13;;;19.90;78.07
81518;BME280;70947;50.806;8.774;2023-06-22T05:02:19;99735.21;;;19.90;78.00
81518;BME280;70947;50.806;8.774;2023-06-22T05:04:51;99736.55;;;19.92;78.00
81518;BME280;70947;50.806;8.774;2023-06-22T05:07:26;99733.23;;;19.93;78.15
81518;BME280;70947;50.806;8.774;2023-06-22T05:09:58;99735.90;;;19.97;78.18
81518;BME280;70947;50.806;8.774;2023-06-22T05:12:30;99739.36;;;19.99;77.98
81518;BME280;70947;50.806;8.774;2023-06-22T05:15:02;99738.59;;;20.02;77.95
81518;BME280;70947;50.806;8.774;2023-06-22T05:17:34;99738.44;;;20.04;78.05
81518;BME280;70947;50.806;8.774;2023-06-22T05:20:06;99734.02;;;20.07;77.81
81518;BME280;70947;50.806;8.774;2023-06-22T05:22:38;99731.55;;;20.09;77.89
81518;BME280;70947;50.806;8.774;2023-06-22T05:25:12;99731.73;;;20.12;77.86
81518;BME280;70947;50.806;8.774;2023-06-22T05:27:44;99729.56;;;20.16;77.81
81518;BME280;70947;50.806;8.774;2023-06-22T05:30:15;99730.49;;;20.17;77.73
81518;BME280;70947;50.806;8.774;2023-06-22T05:32:50;99730.20;;;20.19;77.79
81518;BME280;70947;50.806;8.774;2023-06-22T05:35:22;99731.56;;;20.20;77.62
81518;BME280;70947;50.806;8.774;2023-06-22T05:37:53;99734.25;;;20.23;77.49
81518;BME280;70947;50.806;8.774;2023-06-22T05:40:24;99744.34;;;20.27;77.48
81518;BME280;70947;50.806;8.774;2023-06-22T05:42:57;99731.66;;;20.27;77.46
81518;BME280;70947;50.806;8.774;2023-06-22T05:45:30;99738.76;;;20.28;77.61
81518;BME280;70947;50.806;8.774;2023-06-22T05:48:02;99734.90;;;20.30;77.35
81518;BME280;70947;50.806;8.774;2023-06-22T05:50:33;99735.27;;;20.32;77.43
81518;BME280;70947;50.806;8.774;2023-06-22T05:53:05;99736.44;;;20.34;77.43
81518;BME280;70947;50.806;8.774;2023-06-22T05:55:36;99734.43;;;20.37;77.46
81518;BME280;70947;50.806;8.774;2023-06-22T05:58:07;99738.45;;;20.38;77.34
81518;BME280;70947;50.806;8.774;2023-06-22T06:00:38;99739.52;;;20.39;77.28
81518;BME280;70947;50.806;8.774;2023-06-22T06:03:10;99741.02;;;20.41;77.28
81518;BME280;70947;50.806;8.774;2023-06-22T06:05:44;99743.41;;;20.43;77.30
81518;BME280;70947;50.806;8.774;2023-06-22T06:08:15;99737.34;;;20.45;77.25
81518;BME280;70947;50.806;8.774;2023-06-22T06:10:46;99730.73;;;20.48;77.30
81518;BME280;70947;50.806;8.774;2023-06-22T06:13:17;99727.69;;;20.51;77.09
81518;BME280;70947;50.806;8.774;2023-06-22T06:15:48;99724.34;;;20.55;77.21
81518;BME280;70947;50.806;8.774;2023-06-22T06:18:20;99721.29;;;20.61;76.96
81518;BME280;70947;50.806;8.774;2023-06-22T06:20:52;99718.91;;;20.68;76.83
81518;BME280;70947;50.806;8.774;2023-06-22T06:23:23;99718.77;;;20.73;76.78
81518;BME280;70947;50.806;8.774;2023-06-22T06:25:54;99718.64;;;20.77;76.60
81518;BME280;70947;50.806;8.774;2023-06-22T06:28:26;99719.27;;;20.82;76.62
81518;BME280;70947;50.806;8.774;2023-06-22T06:30:57;99716.63;;;20.86;76.41
81518;BME280;70947;50.806;8.774;2023-06-22T06:33:28;99715.59;;;20.91;76.35
81518;BME280;70947;50.806;8.774;2023-06-22T06:35:59;99712.06;;;20.96;76.10
81518;BME280;70947;50.806;8.774;2023-06-22T06:38:32;99711.49;;;20.99;76.12
81518;BME280;70947;50.806;8.774;2023-06-22T06:41:02;99710.16;;;21.03;75.94
81518;BME280;70947;50.806;8.774;2023-06-22T06:43:33;99707.06;;;21.09;75.74
81518;BME280;70947;50.806;8.774;2023-06-22T06:46:04;99709.30;;;21.16;75.76
81518;BME280;70947;50.806;8.774;2023-06-22T06:48:35;99712.90;;;21.21;75.47
81518;BME280;70947;50.806;8.774;2023-06-22T06:51:07;99711.14;;;21.26;75.16
81518;BME280;70947;50.806;8.774;2023-06-22T06:53:39;99715.24;;;21.31;74.90
81518;BME280;70947;50.806;8.774;2023-06-22T06:56:10;99716.92;;;21.33;74.49
81518;BME280;70947;50.806;8.774;2023-06-22T06:58:42;99718.20;;;21.35;74.21
81518;BME280;70947;50.806;8.774;2023-06-22T07:01:15;99718.34;;;21.39;74.07
81518;BME280;70947;50.806;8.774;2023-06-22T07:03:49;99719.20;;;21.42;74.03
81518;BME280;70947;50.806;8.774;2023-06-22T07:06:20;99722.55;;;21.46;73.95
81518;BME280;70947;50.806;8.774;2023-06-22T07:08:51;99719.69;;;21.51;73.97
81518;BME280;70947;50.806;8.774;2023-06-22T07:11:22;99720.30;;;21.55;73.89
81518;BME280;70947;50.806;8.774;2023-06-22T07:13:53;99712.95;;;21.60;73.89
81518;BME280;70947;50.806;8.774;2023-06-22T07:16:24;99707.92;;;21.65;73.62
81518;BME280;70947;50.806;8.774;2023-06-22T07:18:57;99703.61;;;21.71;73.34
81518;BME280;70947;50.806;8.774;2023-06-22T07:21:28;99697.06;;;21.75;73.30
81518;BME280;70947;50.806;8.774;2023-06-22T07:24:00;99702.18;;;21.81;73.21
81518;BME280;70947;50.806;8.774;2023-06-22T07:26:30;99694.23;;;21.87;72.88
81518;BME280;70947;50.806;8.774;2023-06-22T07:29:01;99693.29;;;21.95;72.74
81518;BME280;70947;50.806;8.774;2023-06-22T07:31:33;99689.70;;;22.03;72.62
81518;BME280;70947;50.806;8.774;2023-06-22T07:34:04;99681.90;;;22.09;72.25
81518;BME280;70947;50.806;8.774;2023-06-22T07:36:35;99681.80;;;22.14;72.15
81518;BME280;70947;50.806;8.774;2023-06-22T07:39:06;99682.08;;;22.17;72.03
81518;BME280;70947;50.806;8.774;2023-06-22T07:41:38;99679.77;;;22.22;72.00
81518;BME280;70947;50.806;8.774;2023-06-22T07:44:09;99681.77;;;22.26;71.76
81518;BME280;70947;50.806;8.774;2023-06-22T07:46:40;99682.97;;;22.32;71.66
81518;BME280;70947;50.806;8.774;2023-06-22T07:49:11;99679.52;;;22.38;71.42
81518;BME280;70947;50.806;8.774;2023-06-22T07:51:42;99676.02;;;22.46;71.32
81518;BME280;70947;50.806;8.774;2023-06-22T07:54:14;99674.33;;;22.55;71.13
81518;BME280;70947;50.806;8.774;2023-06-22T07:56:47;99677.23;;;22.64;70.75
81518;BME280;70947;50.806;8.774;2023-06-22T07:59:18;99672.36;;;22.71;70.64
81518;BME280;70947;50.806;8.774;2023-06-22T08:01:49;99668.61;;;22.79;70.40
81518;BME280;70947;50.806;8.774;2023-06-22T08:04:20;99666.41;;;22.84;70.16
81518;BME280;70947;50.806;8.774;2023-06-22T08:06:51;99667.69;;;22.89;70.44
81518;BME280;70947;50.806;8.774;2023-06-22T08:09:23;99666.38;;;22.95;70.15
81518;BME280;70947;50.806;8.774;2023-06-22T08:11:54;99660.94;;;23.02;69.87
81518;BME280;70947;50.806;8.774;2023-06-22T08:14:27;99655.83;;;23.08;69.56
81518;BME280;70947;50.806;8.774;2023-06-22T08:16:58;99647.30;;;23.11;69.50
81518;BME280;70947;50.806;8.774;2023-06-22T08:19:29;99637.77;;;23.17;68.79
81518;BME280;70947;50.806;8.774;2023-06-22T08:22:00;99631.91;;;23.20;68.71
81518;BME280;70947;50.806;8.774;2023-06-22T08:24:31;99628.79;;;23.23;68.57
81518;BME280;70947;50.806;8.774;2023-06-22T08:27:02;99620.89;;;23.23;68.61
81518;BME280;70947;50.806;8.774;2023-06-22T08:29:33;99619.45;;;23.25;68.58
81518;BME280;70947;50.806;8.774;2023-06-22T08:32:05;99625.16;;;23.31;68.39
81518;BME280;70947;50.806;8.774;2023-06-22T08:34:37;99631.40;;;23.38;67.83
81518;BME280;70947;50.806;8.774;2023-06-22T08:37:11;99628.25;;;23.42;67.73
81518;BME280;70947;50.806;8.774;2023-06-22T08:39:42;99622.26;;;23.47;67.67
81518;BME280;70947;50.806;8.774;2023-06-22T08:42:13;99623.48;;;23.52;67.43
81518;BME280;70947;50.806;8.774;2023-06-22T08:44:44;99621.60;;;23.56;67.22
81518;BME280;70947;50.806;8.774;2023-06-22T08:47:15;99622.11;;;23.58;67.23
81518;BME280;70947;50.806;8.774;2023-06-22T08:49:46;99623.96;;;23.60;67.32
81518;BME280;70947;50.806;8.774;2023-06-22T08:52:18;99617.71;;;23.61;66.92
81518;BME280;70947;50.806;8.774;2023-06-22T08:54:49;99611.82;;;23.63;66.82
81518;BME280;70947;50.806;8.774;2023-06-22T08:57:21;99605.98;;;23.65;66.76
81518;BME280;70947;50.806;8.774;2023-06-22T08:59:52;99610.11;;;23.70;66.09
81518;BME280;70947;50.806;8.774;2023-06-22T09:02:23;99604.81;;;23.77;65.75
81518;BME280;70947;50.806;8.774;2023-06-22T09:04:53;99596.73;;;23.86;65.06
81518;BME280;70947;50.806;8.774;2023-06-22T09:07:25;99593.52;;;23.95;64.75
81518;BME280;70947;50.806;8.774;2023-06-22T09:09:56;99592.42;;;24.00;64.92
81518;BME280;70947;50.806;8.774;2023-06-22T09:12:32;99588.10;;;24.04;64.54
81518;BME280;70947;50.806;8.774;2023-06-22T09:15:05;99583.54;;;24.09;64.68
81518;BME280;70947;50.806;8.774;2023-06-22T09:17:41;99573.92;;;24.12;64.41
81518;BME280;70947;50.806;8.774;2023-06-22T09:20:13;99574.98;;;24.15;64.27
81518;BME280;70947;50.806;8.774;2023-06-22T09:22:45;99578.99;;;24.17;64.50
81518;BME280;70947;50.806;8.774;2023-06-22T09:25:16;99578.95;;;24.21;64.30
81518;BME280;70947;50.806;8.774;2023-06-22T09:27:50;99573.98;;;24.27;63.84
81518;BME280;70947;50.806;8.774;2023-06-22T09:30:21;99570.42;;;24.31;64.15
81518;BME280;70947;50.806;8.774;2023-06-22T09:32:52;99572.41;;;24.35;63.66
81518;BME280;70947;50.806;8.774;2023-06-22T09:35:24;99569.59;;;24.41;63.80
81518;BME280;70947;50.806;8.774;2023-06-22T09:37:55;99565.09;;;24.46;63.57
81518;BME280;70947;50.806;8.774;2023-06-22T09:40:26;99564.40;;;24.50;63.21
81518;BME280;70947;50.806;8.774;2023-06-22T09:42:58;99563.70;;;24.56;62.83
81518;BME280;70947;50.806;8.774;2023-06-22T09:45:30;99557.94;;;24.60;62.51
81518;BME280;70947;50.806;8.774;2023-06-22T09:48:01;99554.11;;;24.67;62.19
81518;BME280;70947;50.806;8.774;2023-06-22T09:50:32;99552.14;;;24.73;62.17
81518;BME280;70947;50.806;8.774;2023-06-22T09:53:03;99556.77;;;24.79;62.23
81518;BME280;70947;50.806;8.774;2023-06-22T09:55:34;99555.55;;;24.84;61.90
81518;BME280;70947;50.806;8.774;2023-06-22T09:58:05;99551.49;;;24.92;61.51
81518;BME280;70947;50.806;8.774;2023-06-22T10:00:36;99542.48;;;24.96;61.56
81518;BME280;70947;50.806;8.774;2023-06-22T10:03:08;99533.21;;;25.01;61.64
81518;BME280;70947;50.806;8.774;2023-06-22T10:05:39;99529.80;;;25.12;61.20
81518;BME280;70947;50.806;8.774;2023-06-22T10:08:12;99528.55;;;25.24;61.20
81518;BME280;70947;50.806;8.774;2023-06-22T10:10:43;99527.90;;;25.33;60.81
81518;BME280;70947;50.806;8.774;2023-06-22T10:13:15;99524.44;;;25.42;60.88
81518;BME280;70947;50.806;8.774;2023-06-22T10:15:46;99510.33;;;25.49;60.34
81518;BME280;70947;50.806;8.774;2023-06-22T10:18:20;99509.30;;;25.56;59.97
81518;BME280;70947;50.806;8.774;2023-06-22T10:20:52;99505.83;;;25.61;59.52
81518;BME280;70947;50.806;8.774;2023-06-22T10:23:23;99499.48;;;25.65;59.62
81518;BME280;70947;50.806;8.774;2023-06-22T10:25:54;99498.45;;;25.75;60.04
81518;BME280;70947;50.806;8.774;2023-06-22T10:28:28;99500.95;;;25.85;59.76
81518;BME280;70947;50.806;8.774;2023-06-22T10:31:02;99505.16;;;25.93;59.48
81518;BME280;70947;50.806;8.774;2023-06-22T10:33:33;99504.85;;;25.98;59.28
81518;BME280;70947;50.806;8.774;2023-06-22T10:36:04;99501.55;;;25.99;59.12
81518;BME280;70947;50.806;8.774;2023-06-22T10:38:35;99495.30;;;26.04;58.94
81518;BME280;70947;50.806;8.774;2023-06-22T10:41:06;99485.99;;;26.13;59.33
81518;BME280;70947;50.806;8.774;2023-06-22T10:43:37;99477.21;;;26.10;58.54
81518;BME280;70947;50.806;8.774;2023-06-22T10:46:09;99469.52;;;26.08;58.50
81518;BME280;70947;50.806;8.774;2023-06-22T10:48:40;99467.09;;;26.07;58.79
81518;BME280;70947;50.806;8.774;2023-06-22T10:51:10;99469.80;;;26.05;58.86
81518;BME280;70947;50.806;8.774;2023-06-22T10:53:41;99462.23;;;26.07;58.91
81518;BME280;70947;50.806;8.774;2023-06-22T10:56:12;99455.88;;;26.09;59.13
81518;BME280;70947;50.806;8.774;2023-06-22T10:58:44;99447.17;;;26.05;59.15
81518;BME280;70947;50.806;8.774;2023-06-22T11:01:15;99441.21;;;26.02;58.86
81518;BME280;70947;50.806;8.774;2023-06-22T11:04:05;99436.65;;;25.98;59.31
81518;BME280;70947;50.806;8.774;2023-06-22T11:06:36;99431.58;;;25.98;59.26
81518;BME280;70947;50.806;8.774;2023-06-22T11:09:07;99425.89;;;26.09;59.36
81518;BME280;70947;50.806;8.774;2023-06-22T11:11:55;99416.73;;;26.15;59.36
81518;BME280;70947;50.806;8.774;2023-06-22T11:14:28;99415.39;;;26.18;59.44
81518;BME280;70947;50.806;8.774;2023-06-22T11:16:59;99404.50;;;26.18;59.00
81518;BME280;70947;50.806;8.774;2023-06-22T11:19:31;99409.77;;;26.18;58.69
81518;BME280;70947;50.806;8.774;2023-06-22T11:22:02;99404.58;;;26.21;58.39
81518;BME280;70947;50.806;8.774;2023-06-22T11:24:32;99392.42;;;26.28;58.27
81518;BME280;70947;50.806;8.774;2023-06-22T11:27:04;99388.61;;;26.35;58.27
81518;BME280;70947;50.806;8.774;2023-06-22T11:29:35;99381.13;;;26.40;58.26
81518;BME280;70947;50.806;8.774;2023-06-22T11:32:09;99377.98;;;26.43;57.78
81518;BME280;70947;50.806;8.774;2023-06-22T11:34:43;99373.21;;;26.48;57.93
81518;BME280;70947;50.806;8.774;2023-06-22T11:37:14;99362.03;;;26.55;57.71
81518;BME280;70947;50.806;8.774;2023-06-22T11:39:45;99356.70;;;26.66;58.12
81518;BME280;70947;50.806;8.774;2023-06-22T11:42:22;99351.55;;;26.71;57.73
81518;BME280;70947;50.806;8.774;2023-06-22T11:44:54;99346.20;;;26.81;57.68
81518;BME280;70947;50.806;8.774;2023-06-22T11:47:30;99347.27;;;26.94;57.25
81518;BME280;70947;50.806;8.774;2023-06-22T11:50:02;99340.54;;;27.08;56.47
81518;BME280;70947;50.806;8.774;2023-06-22T11:52:32;99337.27;;;27.21;55.91
81518;BME280;70947;50.806;8.774;2023-06-22T11:55:07;99331.31;;;27.30;55.87
81518;BME280;70947;50.806;8.774;2023-06-22T11:57:38;99327.11;;;27.38;55.26
81518;BME280;70947;50.806;8.774;2023-06-22T12:00:22;99332.06;;;27.43;55.15
81518;BME280;70947;50.806;8.774;2023-06-22T12:02:58;99331.15;;;27.50;54.41
81518;BME280;70947;50.806;8.774;2023-06-22T12:05:29;99333.73;;;27.56;54.77
81518;BME280;70947;50.806;8.774;2023-06-22T12:08:00;99332.23;;;27.61;54.54
81518;BME280;70947;50.806;8.774;2023-06-22T12:10:31;99334.25;;;27.62;53.81
81518;BME280;70947;50.806;8.774;2023-06-22T12:13:02;99331.90;;;27.66;52.95
81518;BME280;70947;50.806;8.774;2023-06-22T12:15:33;99330.43;;;27.70;52.64
81518;BME280;70947;50.806;8.774;2023-06-22T12:18:05;99324.69;;;27.75;53.48
81518;BME280;70947;50.806;8.774;2023-06-22T12:20:36;99316.44;;;27.76;53.33
81518;BME280;70947;50.806;8.774;2023-06-22T12:23:07;99314.39;;;27.78;52.39
81518;BME280;70947;50.806;8.774;2023-06-22T12:25:38;99308.30;;;27.80;53.35
81518;BME280;70947;50.806;8.774;2023-06-22T12:28:10;99303.58;;;27.83;53.46
81518;BME280;70947;50.806;8.774;2023-06-22T12:30:40;99293.58;;;27.80;53.11
81518;BME280;70947;50.806;8.774;2023-06-22T12:33:12;99288.59;;;27.76;51.76
81518;BME280;70947;50.806;8.774;2023-06-22T12:35:43;99281.50;;;27.85;51.62
81518;BME280;70947;50.806;8.774;2023-06-22T12:38:14;99274.10;;;27.85;52.28
81518;BME280;70947;50.806;8.774;2023-06-22T12:40:46;99265.02;;;27.85;52.44
81518;BME280;70947;50.806;8.774;2023-06-22T12:43:19;99258.95;;;27.90;51.95
81518;BME280;70947;50.806;8.774;2023-06-22T12:45:50;99252.33;;;27.85;52.11
81518;BME280;70947;50.806;8.774;2023-06-22T12:48:21;99247.45;;;27.87;51.88
81518;BME280;70947;50.806;8.774;2023-06-22T12:50:52;99237.40;;;27.90;52.32
81518;BME280;70947;50.806;8.774;2023-06-22T12:53:24;99234.41;;;27.89;51.61
81518;BME280;70947;50.806;8.774;2023-06-22T12:55:57;99216.19;;;27.94;51.27
81518;BME280;70947;50.806;8.774;2023-06-22T12:58:28;99206.01;;;27.99;51.62
81518;BME280;70947;50.806;8.774;2023-06-22T13:00:59;99195.77;;;28.05;50.98
81518;BME280;70947;50.806;8.774;2023-06-22T13:03:30;99189.75;;;28.13;51.17
81518;BME280;70947;50.806;8.774;2023-06-22T13:06:01;99176.44;;;28.12;50.33
81518;BME280;70947;50.806;8.774;2023-06-22T13:08:33;99161.21;;;28.16;49.97
81518;BME280;70947;50.806;8.774;2023-06-22T13:11:23;99144.54;;;28.21;49.88
81518;BME280;70947;50.806;8.774;2023-06-22T13:13:54;99140.81;;;28.24;50.31
81518;BME280;70947;50.806;8.774;2023-06-22T13:16:25;99144.59;;;28.26;50.87
81518;BME280;70947;50.806;8.774;2023-06-22T13:18:57;99156.55;;;28.29;50.46
81518;BME280;70947;50.806;8.774;2023-06-22T13:21:28;99170.45;;;28.35;49.37
81518;BME280;70947;50.806;8.774;2023-06-22T13:23:59;99175.76;;;28.34;48.90